createdAt,value
2023-03-02T00:01:31.878Z,87.90
2023-03-02T00:04:02.196Z,88.20
2023-03-02T00:06:32.100Z,88.40
2023-03-02T00:09:01.754Z,88.50
2023-03-02T00:11:31.852Z,88.70
2023-03-02T00:13:59.830Z,88.90
2023-03-02T00:16:27.949Z,89.20
2023-03-02T00:18:55.904Z,89.40
2023-03-02T00:21:24.503Z,90.00
2023-03-02T00:23:52.560Z,90.00
2023-03-02T00:26:21.197Z,90.20
2023-03-02T00:28:50.522Z,90.30
2023-03-02T00:31:18.498Z,90.30
2023-03-02T00:33:46.397Z,90.50
2023-03-02T00:36:17.958Z,91.00
2023-03-02T00:38:46.204Z,90.80
2023-03-02T00:41:15.769Z,91.10
2023-03-02T00:43:43.914Z,91.20
2023-03-02T00:46:14.397Z,91.20
2023-03-02T00:48:42.290Z,91.30
2023-03-02T00:51:11.030Z,91.50
2023-03-02T00:53:39.435Z,91.60
2023-03-02T00:56:08.714Z,91.60
2023-03-02T00:58:36.925Z,91.70
2023-03-02T01:01:08.070Z,91.70
2023-03-02T01:03:37.396Z,91.70
2023-03-02T01:06:06.049Z,91.60
2023-03-02T01:08:34.085Z,91.70
2023-03-02T01:11:02.418Z,91.70
2023-03-02T01:13:30.384Z,92.10
2023-03-02T01:16:02.403Z,92.20
2023-03-02T01:18:30.482Z,92.00
2023-03-02T01:21:04.036Z,92.10
2023-03-02T01:23:32.038Z,92.30
2023-03-02T01:26:00.270Z,92.30
2023-03-02T01:28:28.137Z,92.40
2023-03-02T01:30:56.118Z,92.60
2023-03-02T01:33:24.050Z,92.80
2023-03-02T01:35:51.988Z,92.70
2023-03-02T01:38:21.426Z,92.90
2023-03-02T01:40:49.327Z,92.90
2023-03-02T01:43:17.851Z,93.10
2023-03-02T01:45:53.269Z,93.60
2023-03-02T01:48:27.175Z,93.40
2023-03-02T01:50:55.999Z,93.40
2023-03-02T01:53:28.486Z,93.60
2023-03-02T01:55:57.208Z,93.60
2023-03-02T01:58:26.877Z,93.60
2023-03-02T02:00:57.240Z,93.70
2023-03-02T02:03:28.200Z,93.80
2023-03-02T02:06:04.880Z,93.80
2023-03-02T02:08:34.784Z,93.90
2023-03-02T02:11:03.132Z,93.90
2023-03-02T02:13:31.648Z,94.00
2023-03-02T02:15:59.595Z,94.00
2023-03-02T02:18:27.851Z,94.30
2023-03-02T02:20:56.967Z,94.30
2023-03-02T02:23:28.224Z,94.60
2023-03-02T02:26:18.287Z,94.70
2023-03-02T02:28:51.751Z,94.80
2023-03-02T02:31:26.541Z,95.10
2023-03-02T02:33:59.182Z,95.20
2023-03-02T02:36:33.899Z,95.30
2023-03-02T02:39:05.333Z,95.30
2023-03-02T02:41:37.423Z,95.30
2023-03-02T02:44:06.041Z,95.40
2023-03-02T02:46:34.928Z,95.40
2023-03-02T02:49:04.527Z,95.40
2023-03-02T02:51:33.653Z,95.50
2023-03-02T02:54:02.647Z,95.70
2023-03-02T02:56:35.558Z,95.60
2023-03-02T02:59:07.150Z,95.70
2023-03-02T03:01:35.929Z,95.70
2023-03-02T03:04:06.315Z,95.80
2023-03-02T03:06:41.963Z,95.90
2023-03-02T03:09:11.106Z,96.00
2023-03-02T03:11:42.938Z,96.20
2023-03-02T03:14:12.629Z,96.20
2023-03-02T03:16:44.461Z,96.20
2023-03-02T03:19:18.202Z,96.30
2023-03-02T03:21:46.335Z,96.40
2023-03-02T03:24:14.249Z,96.50
2023-03-02T03:26:43.663Z,96.50
2023-03-02T03:29:11.744Z,96.60
2023-03-02T03:31:39.757Z,96.60
2023-03-02T03:34:08.580Z,96.60
2023-03-02T03:36:37.234Z,96.80
2023-03-02T03:39:06.869Z,96.70
2023-03-02T03:41:34.892Z,96.80
2023-03-02T03:44:04.674Z,96.90
2023-03-02T03:46:33.101Z,97.00
2023-03-02T03:49:01.627Z,97.10
2023-03-02T03:51:29.988Z,97.00
2023-03-02T03:54:03.528Z,97.20
2023-03-02T03:56:34.731Z,97.30
2023-03-02T03:59:07.369Z,97.50
2023-03-02T04:01:37.980Z,97.50
2023-03-02T04:04:08.099Z,97.50
2023-03-02T04:06:36.089Z,97.50
2023-03-02T04:09:04.650Z,97.60
2023-03-02T04:11:32.961Z,97.90
2023-03-02T04:14:00.991Z,98.10
2023-03-02T04:16:31.164Z,98.20
2023-03-02T04:18:59.660Z,98.50
2023-03-02T04:21:28.322Z,98.70
2023-03-02T04:23:56.960Z,99.00
2023-03-02T04:26:26.214Z,99.10
2023-03-02T04:28:54.184Z,99.30
2023-03-02T04:31:22.104Z,99.80
2023-03-02T04:33:51.549Z,99.90
2023-03-02T04:36:20.168Z,99.90
2023-03-02T04:38:48.302Z,99.90
2023-03-02T04:41:17.590Z,99.90
2023-03-02T04:43:45.477Z,99.90
2023-03-02T04:46:16.435Z,99.90
2023-03-02T04:48:44.287Z,99.90
2023-03-02T04:51:18.824Z,99.90
2023-03-02T04:53:46.763Z,99.90
2023-03-02T04:56:14.615Z,99.90
2023-03-02T04:58:42.523Z,99.90
2023-03-02T05:01:10.814Z,99.90
2023-03-02T05:03:38.750Z,99.90
2023-03-02T05:06:07.380Z,99.90
2023-03-02T05:08:36.750Z,99.90
2023-03-02T05:11:05.086Z,99.90
2023-03-02T05:13:33.018Z,99.90
2023-03-02T05:16:01.373Z,99.90
2023-03-02T05:18:29.472Z,99.90
2023-03-02T05:20:57.558Z,99.90
2023-03-02T05:23:27.515Z,99.90
2023-03-02T05:25:57.840Z,99.90
2023-03-02T05:28:27.408Z,99.90
2023-03-02T05:30:55.852Z,99.90
2023-03-02T05:33:23.709Z,99.90
2023-03-02T05:35:51.728Z,99.90
2023-03-02T05:38:19.605Z,99.90
2023-03-02T05:40:48.320Z,99.90
2023-03-02T05:43:19.773Z,99.90
2023-03-02T05:45:47.951Z,99.90
2023-03-02T05:48:16.317Z,99.90
2023-03-02T05:50:44.288Z,99.90
2023-03-02T05:53:12.194Z,99.90
2023-03-02T05:55:40.114Z,99.90
2023-03-02T05:58:09.713Z,99.90
2023-03-02T06:00:38.917Z,99.90
2023-03-02T06:03:06.905Z,99.90
2023-03-02T06:05:35.292Z,99.90
2023-03-02T06:08:03.261Z,99.90
2023-03-02T06:10:31.298Z,99.90
2023-03-02T06:12:59.194Z,99.90
2023-03-02T06:15:29.615Z,99.90
2023-03-02T06:17:58.929Z,99.90
2023-03-02T06:20:27.644Z,99.90
2023-03-02T06:22:55.736Z,99.90
2023-03-02T06:25:25.244Z,99.90
2023-03-02T06:27:53.840Z,99.90
2023-03-02T06:30:24.277Z,99.90
2023-03-02T06:32:52.534Z,99.90
2023-03-02T06:35:23.879Z,99.90
2023-03-02T06:37:52.052Z,99.90
2023-03-02T06:40:21.591Z,99.90
2023-03-02T06:42:49.773Z,99.90
2023-03-02T06:45:17.933Z,99.90
2023-03-02T06:47:45.819Z,99.90
2023-03-02T06:50:13.649Z,99.90
2023-03-02T06:52:42.864Z,99.90
2023-03-02T06:55:11.346Z,99.90
2023-03-02T06:57:39.360Z,99.90
2023-03-02T07:00:09.783Z,99.90
2023-03-02T07:02:38.266Z,99.90
2023-03-02T07:05:07.413Z,99.90
2023-03-02T07:07:35.356Z,99.90
2023-03-02T07:10:05.813Z,99.90
2023-03-02T07:12:33.930Z,99.90
2023-03-02T07:15:02.072Z,99.90
2023-03-02T07:17:29.931Z,99.90
2023-03-02T07:19:58.035Z,99.90
2023-03-02T07:22:25.988Z,99.90
2023-03-02T07:24:53.879Z,99.90
2023-03-02T07:27:23.125Z,99.90
2023-03-02T07:29:51.133Z,99.90
2023-03-02T07:32:19.160Z,99.90
2023-03-02T07:34:47.063Z,99.90
2023-03-02T07:37:14.957Z,99.90
2023-03-02T07:39:42.916Z,99.90
2023-03-02T07:42:12.713Z,99.90
2023-03-02T07:44:42.209Z,99.90
2023-03-02T07:47:10.469Z,99.90
2023-03-02T07:49:38.443Z,99.90
2023-03-02T07:52:06.940Z,99.90
2023-03-02T07:54:34.882Z,99.90
2023-03-02T07:57:02.952Z,99.90
2023-03-02T07:59:31.198Z,99.90
2023-03-02T08:02:00.593Z,99.90
2023-03-02T08:04:28.527Z,99.90
2023-03-02T08:06:56.406Z,99.90
2023-03-02T08:09:24.292Z,99.90
2023-03-02T08:11:52.212Z,99.90
2023-03-02T08:14:20.093Z,99.90
2023-03-02T08:16:47.984Z,99.90
2023-03-02T08:19:17.318Z,99.90
2023-03-02T08:21:45.676Z,99.90
2023-03-02T08:24:14.072Z,99.90
2023-03-02T08:26:42.054Z,99.70
2023-03-02T08:29:10.479Z,99.90
2023-03-02T08:31:38.462Z,99.20
2023-03-02T08:34:06.758Z,98.10
2023-03-02T08:36:36.035Z,97.20
2023-03-02T08:39:03.972Z,96.80
2023-03-02T08:41:32.309Z,96.30
2023-03-02T08:44:00.322Z,95.80
2023-03-02T08:46:28.227Z,95.10
2023-03-02T08:48:56.171Z,94.60
2023-03-02T08:51:25.460Z,94.30
2023-03-02T08:53:56.522Z,93.80
2023-03-02T08:56:26.939Z,93.50
2023-03-02T08:58:56.185Z,93.60
2023-03-02T09:01:26.418Z,92.80
2023-03-02T09:03:54.385Z,92.00
2023-03-02T09:06:22.679Z,91.50
2023-03-02T09:08:51.187Z,91.30
2023-03-02T09:11:20.686Z,90.90
2023-03-02T09:13:48.707Z,90.40
2023-03-02T09:16:17.104Z,89.80
2023-03-02T09:18:44.988Z,88.50
2023-03-02T09:21:12.866Z,86.70
2023-03-02T09:23:40.797Z,84.90
2023-03-02T09:26:09.026Z,83.10
2023-03-02T09:28:38.902Z,82.10
2023-03-02T09:31:08.746Z,80.40
2023-03-02T09:33:36.899Z,79.20
2023-03-02T09:36:07.490Z,77.20
2023-03-02T09:38:35.489Z,75.20
2023-03-02T09:41:47.895Z,73.50
2023-03-02T09:44:38.856Z,71.20
2023-03-02T09:47:29.866Z,67.90
2023-03-02T09:50:12.784Z,65.80
2023-03-02T09:52:45.227Z,62.80
2023-03-02T09:55:16.598Z,60.90
2023-03-02T09:57:46.252Z,59.80
2023-03-02T10:00:20.010Z,60.20
2023-03-02T10:02:50.980Z,55.80
2023-03-02T10:05:22.320Z,53.00
2023-03-02T10:07:50.452Z,50.40
2023-03-02T10:10:28.332Z,48.20
2023-03-02T10:13:12.136Z,46.00
2023-03-02T10:15:50.772Z,44.30
2023-03-02T10:18:23.220Z,42.70
2023-03-02T10:20:55.765Z,41.30
2023-03-02T10:23:40.203Z,39.80
2023-03-02T10:26:27.499Z,38.60
2023-03-02T10:29:01.826Z,37.80
2023-03-02T10:31:32.660Z,37.10
2023-03-02T10:34:01.766Z,36.60
2023-03-02T10:36:32.060Z,35.80
2023-03-02T10:39:01.374Z,35.10
2023-03-02T10:41:33.901Z,34.40
2023-03-02T10:44:06.499Z,33.90
2023-03-02T10:46:43.635Z,33.50
2023-03-02T10:49:27.608Z,33.00
2023-03-02T10:52:01.820Z,32.50
2023-03-02T10:54:30.739Z,32.30
2023-03-02T10:57:01.662Z,32.40
2023-03-02T10:59:45.227Z,32.30
2023-03-02T11:02:23.130Z,31.70
2023-03-02T11:04:57.451Z,31.30
2023-03-02T11:07:27.683Z,30.90
2023-03-02T11:10:03.342Z,31.00
2023-03-02T11:12:32.806Z,30.80
2023-03-02T11:15:26.264Z,30.40
2023-03-02T11:18:06.133Z,30.30
2023-03-02T11:20:38.991Z,30.10
2023-03-02T11:23:16.790Z,29.90
2023-03-02T11:25:49.755Z,29.90
2023-03-02T11:28:30.982Z,29.90
2023-03-02T11:31:01.630Z,29.80
2023-03-02T11:33:36.395Z,29.80
2023-03-02T11:36:10.653Z,29.80
2023-03-02T11:38:48.138Z,29.60
2023-03-02T11:41:27.366Z,29.50
2023-03-02T11:43:55.656Z,29.40
2023-03-02T11:46:26.751Z,29.30
2023-03-02T11:48:58.743Z,28.90
2023-03-02T11:51:29.571Z,28.80
2023-03-02T11:54:02.673Z,28.70
2023-03-02T11:56:32.828Z,29.40
2023-03-02T11:59:04.653Z,29.00
2023-03-02T12:01:36.762Z,29.00
2023-03-02T12:04:12.528Z,29.00
2023-03-02T12:06:44.004Z,29.10
2023-03-02T12:09:30.978Z,28.90
2023-03-02T12:12:11.672Z,29.00
2023-03-02T12:14:41.499Z,29.30
2023-03-02T12:17:22.574Z,29.20
2023-03-02T12:19:53.870Z,29.40
2023-03-02T12:22:30.466Z,29.30
2023-03-02T12:25:05.870Z,29.90
2023-03-02T12:27:39.964Z,29.30
2023-03-02T12:30:27.262Z,29.10
2023-03-02T12:33:05.288Z,29.20
2023-03-02T12:35:35.865Z,29.20
2023-03-02T12:38:06.891Z,29.10
2023-03-02T12:40:45.966Z,29.10
2023-03-02T12:43:32.428Z,29.10
2023-03-02T12:46:26.991Z,28.90
2023-03-02T12:49:25.817Z,28.90
2023-03-02T12:51:57.474Z,29.00
2023-03-02T12:54:27.586Z,29.70
2023-03-02T12:57:08.803Z,29.20
2023-03-02T12:59:37.588Z,29.20
2023-03-02T13:02:17.215Z,29.10
2023-03-02T13:04:45.549Z,29.00
2023-03-02T13:07:20.096Z,29.10
2023-03-02T13:09:56.612Z,29.30
2023-03-02T13:12:28.123Z,29.50
2023-03-02T13:14:58.509Z,29.70
2023-03-02T13:17:31.322Z,29.90
2023-03-02T13:20:00.852Z,30.00
2023-03-02T13:22:30.868Z,30.00
2023-03-02T13:25:02.058Z,30.30
2023-03-02T13:27:30.996Z,30.50
2023-03-02T13:30:10.579Z,30.80
2023-03-02T13:32:42.090Z,30.80
2023-03-02T13:35:20.437Z,30.80
2023-03-02T13:38:04.579Z,31.10
2023-03-02T13:40:44.732Z,31.50
2023-03-02T13:43:23.851Z,32.00
2023-03-02T13:45:54.012Z,33.10
2023-03-02T13:48:22.228Z,33.70
2023-03-02T13:50:56.004Z,33.10
2023-03-02T13:53:25.934Z,33.60
2023-03-02T13:55:55.132Z,34.00
2023-03-02T13:58:25.292Z,34.00
2023-03-02T14:00:54.341Z,34.60
2023-03-02T14:03:27.514Z,34.90
2023-03-02T14:05:56.717Z,34.90
2023-03-02T14:08:26.126Z,35.30
2023-03-02T14:10:57.256Z,35.70
2023-03-02T14:13:29.504Z,35.90
2023-03-02T14:15:57.491Z,36.20
2023-03-02T14:18:32.148Z,36.60
2023-03-02T14:21:00.513Z,37.00
2023-03-02T14:23:29.928Z,37.50
2023-03-02T14:25:58.372Z,37.40
2023-03-02T14:28:31.312Z,37.70
2023-03-02T14:30:59.954Z,38.10
2023-03-02T14:33:27.915Z,38.90
2023-03-02T14:35:59.278Z,39.20
2023-03-02T14:38:29.991Z,39.90
2023-03-02T14:40:58.695Z,40.00
2023-03-02T14:43:26.577Z,40.80
2023-03-02T14:45:54.794Z,41.40
2023-03-02T14:48:22.866Z,42.20
2023-03-02T14:50:52.468Z,42.90
2023-03-02T14:53:27.064Z,43.90
2023-03-02T14:55:56.529Z,44.90
2023-03-02T14:58:31.898Z,45.40
2023-03-02T15:01:00.436Z,46.30
2023-03-02T15:03:29.290Z,46.90
2023-03-02T15:06:01.951Z,47.40
2023-03-02T15:08:30.443Z,47.80
2023-03-02T15:10:59.810Z,48.30
2023-03-02T15:13:27.697Z,48.80
2023-03-02T15:15:55.617Z,49.10
2023-03-02T15:18:23.599Z,49.60
2023-03-02T15:20:51.460Z,50.00
2023-03-02T15:23:19.417Z,50.40
2023-03-02T15:25:47.363Z,50.40
2023-03-02T15:28:16.572Z,51.10
2023-03-02T15:30:44.495Z,50.90
2023-03-02T15:33:12.458Z,51.20
2023-03-02T15:35:40.902Z,51.60
2023-03-02T15:38:08.951Z,52.00
2023-03-02T15:40:37.687Z,52.00
2023-03-02T15:43:05.587Z,52.30
2023-03-02T15:45:34.919Z,52.50
2023-03-02T15:48:02.880Z,53.20
2023-03-02T15:50:30.986Z,52.80
2023-03-02T15:52:58.947Z,53.20
2023-03-02T15:55:27.057Z,53.50
2023-03-02T15:57:58.069Z,53.80
2023-03-02T16:00:26.410Z,53.90
2023-03-02T16:02:55.820Z,54.20
2023-03-02T16:05:23.764Z,54.30
2023-03-02T16:07:51.681Z,54.60
2023-03-02T16:10:20.718Z,54.60
2023-03-02T16:12:48.717Z,54.90
2023-03-02T16:15:17.142Z,55.20
2023-03-02T16:17:45.042Z,55.10
2023-03-02T16:20:14.878Z,55.30
2023-03-02T16:22:42.862Z,55.40
2023-03-02T16:25:11.208Z,55.60
2023-03-02T16:27:39.188Z,56.00
2023-03-02T16:30:08.322Z,56.20
2023-03-02T16:32:36.404Z,56.40
2023-03-02T16:35:04.511Z,57.20
2023-03-02T16:37:33.811Z,57.00
2023-03-02T16:40:01.773Z,57.00
2023-03-02T16:42:30.358Z,57.20
2023-03-02T16:44:58.306Z,57.50
2023-03-02T16:47:26.342Z,57.60
2023-03-02T16:49:54.254Z,57.80
2023-03-02T16:52:22.960Z,57.90
2023-03-02T16:54:52.224Z,58.20
2023-03-02T16:57:20.387Z,58.30
2023-03-02T16:59:48.276Z,58.40
2023-03-02T17:02:16.564Z,58.70
2023-03-02T17:04:44.704Z,58.90
2023-03-02T17:07:12.681Z,59.00
2023-03-02T17:09:42.029Z,59.10
2023-03-02T17:12:11.515Z,59.20
2023-03-02T17:14:39.448Z,59.40
2023-03-02T17:17:07.454Z,59.70
2023-03-02T17:19:35.478Z,60.00
2023-03-02T17:22:04.581Z,60.40
2023-03-02T17:24:33.224Z,60.60
2023-03-02T17:27:01.203Z,60.80
2023-03-02T17:29:30.574Z,61.00
2023-03-02T17:31:58.533Z,61.40
2023-03-02T17:34:30.608Z,61.50
2023-03-02T17:36:59.379Z,61.80
2023-03-02T17:39:27.577Z,62.00
2023-03-02T17:41:56.094Z,62.00
2023-03-02T17:44:23.989Z,62.20
2023-03-02T17:46:53.270Z,62.30
2023-03-02T17:49:21.172Z,62.60
2023-03-02T17:51:49.068Z,62.80
2023-03-02T17:54:17.077Z,63.30
2023-03-02T17:56:44.942Z,63.10
2023-03-02T17:59:12.918Z,63.50
2023-03-02T18:01:43.433Z,63.60
2023-03-02T18:04:12.866Z,63.50
2023-03-02T18:06:40.909Z,64.00
2023-03-02T18:09:08.923Z,65.00
2023-03-02T18:11:36.863Z,64.30
2023-03-02T18:14:05.297Z,64.50
2023-03-02T18:16:35.403Z,64.70
2023-03-02T18:19:03.723Z,65.70
2023-03-02T18:21:34.568Z,65.10
2023-03-02T18:24:02.495Z,65.20
2023-03-02T18:26:30.629Z,65.50
2023-03-02T18:28:58.839Z,65.80
2023-03-02T18:31:28.322Z,65.90
2023-03-02T18:33:56.279Z,66.10
2023-03-02T18:36:24.174Z,66.30
2023-03-02T18:38:54.474Z,66.50
2023-03-02T18:41:23.118Z,66.70
2023-03-02T18:43:51.885Z,67.10
2023-03-02T18:46:22.851Z,67.10
2023-03-02T18:48:51.733Z,67.30
2023-03-02T18:51:20.139Z,67.40
2023-03-02T18:53:48.721Z,67.50
2023-03-02T18:56:18.775Z,67.80
2023-03-02T18:58:47.022Z,68.00
2023-03-02T19:01:14.988Z,68.10
2023-03-02T19:03:45.826Z,68.30
2023-03-02T19:06:15.310Z,68.40
2023-03-02T19:08:43.299Z,68.60
2023-03-02T19:11:11.676Z,68.70
2023-03-02T19:13:41.081Z,69.30
2023-03-02T19:16:09.711Z,69.10
2023-03-02T19:18:38.250Z,69.30
2023-03-02T19:21:06.800Z,69.50
2023-03-02T19:23:34.787Z,69.60
2023-03-02T19:26:04.791Z,69.80
2023-03-02T19:28:33.839Z,70.00
2023-03-02T19:31:06.534Z,70.10
2023-03-02T19:33:34.614Z,70.30
2023-03-02T19:36:02.572Z,70.60
2023-03-02T19:38:30.530Z,70.80
2023-03-02T19:41:00.283Z,71.00
2023-03-02T19:43:29.085Z,71.20
2023-03-02T19:45:57.254Z,71.50
2023-03-02T19:48:26.474Z,71.60
2023-03-02T19:50:54.367Z,72.70
2023-03-02T19:53:22.674Z,72.10
2023-03-02T19:55:51.486Z,72.30
2023-03-02T19:58:20.367Z,72.30
2023-03-02T20:00:48.890Z,72.30
2023-03-02T20:03:16.822Z,72.50
2023-03-02T20:05:46.140Z,72.80
2023-03-02T20:08:14.797Z,73.10
2023-03-02T20:10:45.395Z,73.50
2023-03-02T20:13:13.860Z,73.90
2023-03-02T20:15:45.749Z,73.80
2023-03-02T20:18:16.401Z,74.00
2023-03-02T20:20:47.156Z,74.20
2023-03-02T20:23:15.880Z,74.50
2023-03-02T20:25:43.865Z,74.60
2023-03-02T20:28:14.080Z,74.80
2023-03-02T20:30:45.878Z,74.70
2023-03-02T20:33:15.658Z,74.70
2023-03-02T20:35:46.960Z,74.90
2023-03-02T20:38:22.824Z,75.10
2023-03-02T20:40:51.394Z,75.40
2023-03-02T20:43:19.770Z,75.50
2023-03-02T20:45:47.925Z,75.70
2023-03-02T20:48:16.051Z,75.90
2023-03-02T20:50:44.185Z,76.20
2023-03-02T20:53:13.683Z,76.30
2023-03-02T20:55:41.763Z,76.70
2023-03-02T20:58:09.937Z,77.00
2023-03-02T21:00:38.426Z,77.20
2023-03-02T21:03:07.948Z,77.90
2023-03-02T21:05:38.148Z,77.90
2023-03-02T21:08:06.130Z,78.10
2023-03-02T21:10:37.388Z,78.00
2023-03-02T21:13:07.561Z,78.20
2023-03-02T21:15:36.021Z,78.20
2023-03-02T21:18:04.349Z,78.40
2023-03-02T21:20:36.797Z,78.50
2023-03-02T21:23:05.222Z,78.40
2023-03-02T21:25:33.594Z,78.60
2023-03-02T21:28:02.923Z,78.50
2023-03-02T21:30:36.809Z,78.70
2023-03-02T21:33:05.167Z,78.80
2023-03-02T21:35:33.294Z,79.00
2023-03-02T21:38:04.754Z,79.40
2023-03-02T21:40:35.328Z,79.50
2023-03-02T21:43:05.710Z,79.60
2023-03-02T21:45:34.474Z,79.90
2023-03-02T21:48:02.980Z,79.90
2023-03-02T21:50:33.778Z,80.00
2023-03-02T21:53:01.953Z,80.10
2023-03-02T21:55:31.535Z,80.20
2023-03-02T21:58:02.580Z,80.40
2023-03-02T22:00:34.107Z,81.00
2023-03-02T22:03:03.142Z,81.50
2023-03-02T22:05:31.628Z,81.90
2023-03-02T22:08:00.031Z,81.90
2023-03-02T22:10:33.079Z,82.20
2023-03-02T22:13:17.316Z,82.60
2023-03-02T22:15:47.370Z,82.50
2023-03-02T22:18:17.367Z,83.00
2023-03-02T22:20:47.504Z,83.20
2023-03-02T22:23:17.797Z,83.50
2023-03-02T22:25:45.972Z,83.70
2023-03-02T22:28:17.748Z,83.90
2023-03-02T22:30:47.054Z,83.90
2023-03-02T22:33:20.519Z,84.60
2023-03-02T22:35:48.893Z,84.00
2023-03-02T22:38:24.191Z,84.10
2023-03-02T22:40:53.033Z,84.10
2023-03-02T22:43:25.827Z,84.10
2023-03-02T22:45:59.107Z,84.30
2023-03-02T22:48:30.253Z,84.30
2023-03-02T22:50:58.206Z,84.50
2023-03-02T22:53:30.022Z,84.70
2023-03-02T22:56:00.350Z,84.80
2023-03-02T22:58:51.223Z,85.20
2023-03-02T23:01:25.354Z,86.20
2023-03-02T23:03:54.837Z,85.40
2023-03-02T23:06:31.695Z,85.30
2023-03-02T23:09:01.745Z,85.30
2023-03-02T23:11:32.793Z,85.50
2023-03-02T23:14:02.759Z,86.00
2023-03-02T23:16:36.704Z,86.20
2023-03-02T23:19:05.535Z,87.10
2023-03-02T23:21:39.170Z,86.80
2023-03-02T23:24:08.545Z,87.00
2023-03-02T23:26:37.212Z,87.10
2023-03-02T23:29:05.725Z,87.30
2023-03-02T23:31:35.099Z,87.30
2023-03-02T23:34:03.212Z,87.50
2023-03-02T23:36:32.349Z,87.60
2023-03-02T23:39:00.192Z,87.80
2023-03-02T23:41:28.371Z,87.90
2023-03-02T23:43:56.283Z,88.90
2023-03-02T23:46:24.176Z,88.10
2023-03-02T23:48:53.635Z,88.50
2023-03-02T23:51:22.144Z,88.70
2023-03-02T23:53:50.299Z,89.00
2023-03-02T23:56:19.183Z,89.00
2023-03-02T23:58:47.957Z,89.10
